Time;durP1;ratioP1;P1;durP2;ratioP2;P2;SDS_P1;SDS_P2;PMS_P1;PMS_P2;Temp;Humidity;BMP_temperature;BMP_pressure;BME280_temperature;BME280_humidity;BME280_pressure;Samples;Min_cycle;Max_cycle;Signal;HPM_P1;HPM_P2
2023/12/17 00:00:45;;;;;;;36.22;24.42;;;2.10;99.90;;;;;;7376456;19;20078;-68
2023/12/17 00:03:15;;;;;;;40.83;25.58;;;2.10;99.90;;;;;;7376059;19;20017;-69
2023/12/17 00:05:52;;;;;;;35.20;24.60;;;2.10;99.90;;;;;;7377125;19;20022;-70
2023/12/17 00:08:22;;;;;;;39.45;25.33;;;2.10;99.90;;;;;;7375390;19;20039;-70
2023/12/17 00:10:52;;;;;;;38.70;24.73;;;2.00;99.90;;;;;;7375767;19;20006;-70
2023/12/17 00:13:24;;;;;;;37.22;23.25;;;2.00;99.90;;;;;;7375660;19;20021;-70
2023/12/17 00:15:54;;;;;;;39.38;23.70;;;2.00;99.90;;;;;;7375440;19;20013;-70
2023/12/17 00:18:24;;;;;;;35.67;23.83;;;2.00;99.90;;;;;;7374068;19;20006;-69
2023/12/17 00:20:57;;;;;;;29.77;22.83;;;1.90;99.90;;;;;;7377796;19;20502;-69
2023/12/17 00:23:27;;;;;;;32.97;22.15;;;1.50;99.90;;;;;;7381884;19;20022;-68
2023/12/17 00:25:57;;;;;;;28.73;21.20;;;1.40;99.90;;;;;;7382677;19;20516;-69
2023/12/17 00:28:27;;;;;;;29.50;21.02;;;1.30;99.90;;;;;;7379961;19;20429;-69
2023/12/17 00:30:57;;;;;;;30.83;22.60;;;1.10;99.90;;;;;;7381894;19;20026;-69
2023/12/17 00:33:27;;;;;;;30.15;20.80;;;1.00;99.90;;;;;;7382532;19;20035;-68
2023/12/17 00:36:00;;;;;;;29.50;21.05;;;1.20;99.90;;;;;;7382765;19;20373;-68
2023/12/17 00:38:30;;;;;;;28.05;20.00;;;1.10;99.90;;;;;;7381511;19;20089;-68
2023/12/17 00:41:00;;;;;;;28.30;20.95;;;1.00;99.90;;;;;;7382601;19;20023;-69
2023/12/17 00:43:30;;;;;;;29.02;20.63;;;1.00;99.90;;;;;;7381714;19;20007;-70
2023/12/17 00:46:00;;;;;;;29.98;20.98;;;1.00;99.90;;;;;;7381149;19;20011;-69
2023/12/17 00:48:31;;;;;;;32.25;23.88;;;1.10;99.90;;;;;;7379988;19;20006;-69
2023/12/17 00:51:04;;;;;;;28.67;20.85;;;1.00;99.90;;;;;;7381699;19;20003;-70
2023/12/17 00:53:34;;;;;;;27.60;20.95;;;1.00;99.90;;;;;;7382538;19;20032;-69
2023/12/17 00:56:04;;;;;;;26.95;19.98;;;1.10;99.90;;;;;;7378374;19;20007;-69
2023/12/17 00:58:34;;;;;;;27.75;20.80;;;1.10;99.90;;;;;;7377711;19;20030;-70
2023/12/17 01:01:04;;;;;;;30.20;21.17;;;1.10;99.90;;;;;;7382588;19;20410;-69
2023/12/17 01:03:35;;;;;;;33.90;20.88;;;1.10;99.90;;;;;;7383605;19;20023;-70
2023/12/17 01:06:08;;;;;;;33.38;23.35;;;1.20;99.90;;;;;;7382289;19;20019;-69
2023/12/17 01:08:38;;;;;;;29.25;20.10;;;1.20;99.90;;;;;;7375942;19;20015;-70
2023/12/17 01:11:08;;;;;;;30.38;21.42;;;1.20;99.90;;;;;;7381672;19;20007;-70
2023/12/17 01:13:38;;;;;;;28.17;20.75;;;1.10;99.90;;;;;;7380221;19;20881;-69
2023/12/17 01:16:09;;;;;;;29.02;20.83;;;1.00;99.90;;;;;;7381089;19;20014;-70
2023/12/17 01:18:39;;;;;;;27.02;20.88;;;1.00;99.90;;;;;;7379712;19;20007;-70
2023/12/17 01:21:12;;;;;;;28.48;21.02;;;1.10;99.90;;;;;;7380212;19;20066;-70
2023/12/17 01:23:42;;;;;;;28.35;20.73;;;1.00;99.90;;;;;;7380716;19;20098;-70
2023/12/17 01:26:22;;;;;;;30.23;22.20;;;1.00;99.90;;;;;;7380265;19;20018;-70
2023/12/17 01:28:52;;;;;;;30.70;21.50;;;1.10;99.90;;;;;;7380109;19;20006;-69
2023/12/17 01:31:22;;;;;;;35.47;22.60;;;1.10;99.90;;;;;;7380014;19;20022;-69
2023/12/17 01:33:52;;;;;;;33.30;22.27;;;1.10;99.90;;;;;;7380022;19;20007;-69
2023/12/17 01:36:25;;;;;;;33.30;23.05;;;1.10;99.90;;;;;;7379734;19;20010;-69
2023/12/17 01:38:55;;;;;;;38.35;23.38;;;1.20;99.90;;;;;;7379804;19;20014;-69
2023/12/17 01:41:25;;;;;;;37.08;23.58;;;1.30;99.90;;;;;;7380521;19;20018;-69
2023/12/17 01:43:55;;;;;;;36.33;23.60;;;1.20;99.90;;;;;;7380204;19;20021;-70
2023/12/17 01:46:25;;;;;;;35.38;24.67;;;1.30;99.90;;;;;;7381327;19;20023;-69
2023/12/17 01:48:55;;;;;;;37.47;25.10;;;1.20;99.90;;;;;;7380967;19;20006;-69
2023/12/17 01:51:31;;;;;;;37.58;24.63;;;1.20;99.90;;;;;;7381939;19;20039;-70
2023/12/17 01:54:02;;;;;;;36.47;24.27;;;1.20;99.90;;;;;;7382289;19;20018;-69
2023/12/17 01:56:33;;;;;;;39.30;23.92;;;1.20;99.90;;;;;;7381004;19;20032;-70
2023/12/17 01:59:03;;;;;;;40.15;25.20;;;1.20;99.90;;;;;;7380416;19;20022;-70
2023/12/17 02:01:34;;;;;;;39.63;24.45;;;1.20;99.90;;;;;;7381599;19;20021;-70
2023/12/17 02:04:08;;;;;;;;;;;1.10;99.90;;;;;;7381588;19;20016;-70
2023/12/17 02:06:41;;;;;;;40.80;25.02;;;1.10;99.90;;;;;;7380986;19;20331;-69
2023/12/17 02:09:11;;;;;;;43.42;25.40;;;1.20;99.90;;;;;;7375504;19;20007;-69
2023/12/17 02:11:41;;;;;;;40.00;26.00;;;1.10;99.90;;;;;;7380354;19;20011;-68
2023/12/17 02:14:11;;;;;;;39.25;24.15;;;1.10;99.90;;;;;;7377969;19;20025;-70
2023/12/17 02:16:41;;;;;;;38.20;23.20;;;1.10;99.90;;;;;;7378462;19;20081;-69
2023/12/17 02:19:11;;;;;;;42.10;24.90;;;1.20;99.90;;;;;;7379922;19;20031;-69
2023/12/17 02:21:44;;;;;;;33.15;22.20;;;1.20;99.90;;;;;;7378857;19;20021;-70
2023/12/17 02:24:17;;;;;;;35.17;22.00;;;1.20;99.90;;;;;;7378343;19;20040;-69
2023/12/17 02:26:47;;;;;;;35.58;22.75;;;1.20;99.90;;;;;;7378679;19;20018;-69
2023/12/17 02:29:17;;;;;;;34.95;21.88;;;1.20;99.90;;;;;;7379015;19;20014;-69
2023/12/17 02:31:47;;;;;;;32.65;22.17;;;1.10;99.90;;;;;;7379139;19;20006;-69
2023/12/17 02:34:17;;;;;;;36.22;21.95;;;1.00;99.90;;;;;;7377459;19;20013;-69
2023/12/17 02:36:47;;;;;;;33.63;20.98;;;1.10;99.90;;;;;;7379126;19;20010;-68
2023/12/17 02:39:20;;;;;;;34.10;22.83;;;1.20;99.90;;;;;;7380157;19;20018;-70
2023/12/17 02:41:50;;;;;;;31.67;21.45;;;1.10;99.90;;;;;;7379292;19;20011;-69
2023/12/17 02:44:20;;;;;;;31.38;21.95;;;1.10;99.90;;;;;;7378368;19;20086;-69
2023/12/17 02:46:50;;;;;;;32.40;22.52;;;1.10;99.90;;;;;;7378144;19;20014;-68
2023/12/17 02:49:20;;;;;;;32.03;22.67;;;1.10;99.90;;;;;;7378537;19;20094;-69
2023/12/17 02:51:55;;;;;;;30.10;20.88;;;1.10;99.90;;;;;;7379944;19;20074;-69
2023/12/17 02:54:27;;;;;;;30.92;21.45;;;1.10;99.90;;;;;;7379834;19;20010;-69
2023/12/17 02:56:57;;;;;;;33.92;23.10;;;1.10;99.90;;;;;;7379537;19;20480;-69
2023/12/17 02:59:27;;;;;;;34.00;22.80;;;1.00;99.90;;;;;;7379400;19;20043;-68
2023/12/17 03:01:57;;;;;;;34.38;23.27;;;1.00;99.90;;;;;;7379451;19;20021;-68
2023/12/17 03:04:27;;;;;;;32.80;22.38;;;1.00;99.90;;;;;;7378471;19;20090;-68
2023/12/17 03:06:57;;;;;;;32.40;21.58;;;1.00;99.90;;;;;;7379158;19;20074;-68
2023/12/17 03:09:30;;;;;;;34.08;21.98;;;1.00;99.90;;;;;;7378683;19;20011;-68
2023/12/17 03:12:00;;;;;;;30.90;22.48;;;1.00;99.90;;;;;;7378142;19;20609;-68
2023/12/17 03:14:33;;;;;;;33.95;22.75;;;1.00;99.90;;;;;;7378635;19;20018;-69
2023/12/17 03:17:03;;;;;;;34.97;22.80;;;1.00;99.90;;;;;;7378268;19;20026;-69
2023/12/17 03:19:33;;;;;;;34.45;22.58;;;1.10;99.90;;;;;;7378853;19;20023;-69
2023/12/17 03:22:03;;;;;;;30.98;22.30;;;1.00;99.90;;;;;;7378588;19;20048;-69
2023/12/17 03:24:35;;;;;;;28.60;20.90;;;1.10;99.90;;;;;;7378368;19;20505;-69
2023/12/17 03:27:06;;;;;;;30.98;21.60;;;1.10;99.90;;;;;;7377754;19;20039;-68
2023/12/17 03:29:36;;;;;;;31.63;20.35;;;1.00;99.90;;;;;;7378457;19;20007;-70
2023/12/17 03:32:06;;;;;;;28.02;20.08;;;1.10;99.90;;;;;;7377369;19;20010;-69
2023/12/17 03:34:37;;;;;;;31.70;21.13;;;1.10;99.90;;;;;;7376785;19;20015;-69
2023/12/17 03:37:07;;;;;;;26.92;19.73;;;1.10;99.90;;;;;;7376672;19;20014;-69
2023/12/17 03:39:39;;;;;;;28.48;19.80;;;1.10;99.90;;;;;;7377372;19;20018;-69
2023/12/17 03:42:09;;;;;;;30.40;20.98;;;1.10;99.90;;;;;;7377847;19;20013;-69
2023/12/17 03:44:39;;;;;;;28.73;20.35;;;1.10;99.90;;;;;;7374483;19;20014;-70
2023/12/17 03:47:10;;;;;;;31.77;20.35;;;1.00;99.90;;;;;;7377334;19;20804;-70
2023/12/17 03:49:40;;;;;;;27.63;19.70;;;1.10;99.90;;;;;;7376434;19;20031;-68
2023/12/17 03:52:10;;;;;;;31.77;20.45;;;1.00;99.90;;;;;;7378081;19;20371;-69
2023/12/17 03:54:42;;;;;;;27.63;19.42;;;1.00;99.90;;;;;;7375276;19;20482;-68
2023/12/17 03:57:12;;;;;;;26.98;19.08;;;1.10;99.90;;;;;;7376884;19;20011;-68
2023/12/17 03:59:42;;;;;;;29.15;19.73;;;1.10;99.90;;;;;;7379054;19;20010;-68
2023/12/17 04:02:12;;;;;;;27.92;19.60;;;1.10;99.90;;;;;;7375698;19;20026;-68
2023/12/17 04:04:42;;;;;;;26.98;20.48;;;1.00;99.90;;;;;;7377687;19;20035;-69
2023/12/17 04:07:12;;;;;;;26.63;19.25;;;1.00;99.90;;;;;;7378308;19;20080;-69
2023/12/17 04:09:45;;;;;;;24.27;18.90;;;0.90;99.90;;;;;;7377861;19;20036;-69
2023/12/17 04:12:15;;;;;;;30.45;20.40;;;0.90;99.90;;;;;;7373928;19;20011;-68
2023/12/17 04:14:45;;;;;;;27.15;18.80;;;0.90;99.90;;;;;;7376518;19;20491;-68
2023/12/17 04:17:15;;;;;;;28.63;19.58;;;1.00;99.90;;;;;;7373797;19;20010;-69
2023/12/17 04:19:46;;;;;;;22.85;18.10;;;0.90;99.90;;;;;;7378286;19;20085;-69
2023/12/17 04:22:16;;;;;;;25.60;19.50;;;0.90;99.90;;;;;;7375980;19;20011;-68
2023/12/17 04:24:48;;;;;;;28.67;19.70;;;0.90;99.90;;;;;;7378616;19;20013;-69
2023/12/17 04:27:18;;;;;;;24.75;17.95;;;0.90;99.90;;;;;;7377415;19;20035;-69
2023/12/17 04:29:48;;;;;;;28.75;19.35;;;0.90;99.90;;;;;;7376606;19;20022;-69
2023/12/17 04:32:18;;;;;;;27.70;19.48;;;0.80;99.90;;;;;;7376949;19;20006;-69
2023/12/17 04:34:50;;;;;;;28.17;19.75;;;0.80;99.90;;;;;;7376088;19;20014;-68
2023/12/17 04:37:20;;;;;;;25.17;18.58;;;0.90;99.90;;;;;;7376171;19;20010;-69
2023/12/17 04:39:53;;;;;;;29.75;20.20;;;0.90;99.90;;;;;;7376372;19;20459;-69
2023/12/17 04:42:23;;;;;;;27.95;19.75;;;0.90;99.90;;;;;;7378088;19;20007;-69
2023/12/17 04:44:53;;;;;;;30.20;20.60;;;0.80;99.90;;;;;;7376801;19;20007;-70
2023/12/17 04:47:23;;;;;;;29.52;19.77;;;0.80;99.90;;;;;;7375398;19;20010;-69
2023/12/17 04:49:53;;;;;;;26.52;19.25;;;0.90;99.90;;;;;;7376001;19;20002;-69
2023/12/17 04:52:23;;;;;;;28.08;18.42;;;0.80;99.90;;;;;;7375494;19;20014;-69
2023/12/17 04:54:55;;;;;;;23.23;17.58;;;0.90;99.90;;;;;;7374393;19;20010;-69
2023/12/17 04:57:26;;;;;;;28.42;19.20;;;0.80;99.90;;;;;;7374475;19;20018;-69
2023/12/17 04:59:56;;;;;;;24.83;19.23;;;0.80;99.90;;;;;;7374953;19;19999;-69
2023/12/17 05:02:27;;;;;;;30.05;20.05;;;0.80;99.90;;;;;;7376268;19;20007;-69
2023/12/17 05:04:57;;;;;;;28.13;19.42;;;0.80;99.90;;;;;;7375112;19;20002;-68
2023/12/17 05:07:27;;;;;;;27.63;18.75;;;0.80;99.90;;;;;;7377565;19;20015;-69
2023/12/17 05:09:59;;;;;;;26.95;18.73;;;0.80;99.90;;;;;;7382559;19;20034;-69
2023/12/17 05:12:29;;;;;;;28.13;17.92;;;0.80;99.90;;;;;;7382329;19;20023;-69
2023/12/17 05:14:59;;;;;;;29.58;19.30;;;0.80;99.90;;;;;;7382096;19;20010;-69
2023/12/17 05:17:31;;;;;;;27.25;18.27;;;0.70;99.90;;;;;;7380123;19;20603;-69
2023/12/17 05:20:01;;;;;;;26.38;19.17;;;0.70;99.90;;;;;;7381999;19;20006;-69
2023/12/17 05:22:31;;;;;;;29.58;18.55;;;0.70;99.90;;;;;;7381459;19;20010;-68
2023/12/17 05:25:04;;;;;;;27.30;18.75;;;0.70;99.90;;;;;;7381630;19;20006;-68
2023/12/17 05:27:34;;;;;;;25.45;18.50;;;0.80;99.90;;;;;;7381680;19;20026;-68
2023/12/17 05:30:04;;;;;;;25.83;18.90;;;0.80;99.90;;;;;;7380574;19;20014;-68
2023/12/17 05:32:34;;;;;;;26.15;18.77;;;0.80;99.90;;;;;;7380550;19;20017;-68
2023/12/17 05:35:04;;;;;;;26.65;18.35;;;0.80;99.90;;;;;;7381773;19;20018;-69
2023/12/17 05:37:34;;;;;;;25.92;17.80;;;0.80;99.90;;;;;;7380018;19;20021;-69
2023/12/17 05:40:09;;;;;;;26.35;18.27;;;0.80;99.90;;;;;;7379946;19;20038;-69
2023/12/17 05:42:39;;;;;;;27.45;17.80;;;0.80;99.90;;;;;;7380543;19;20014;-69
2023/12/17 05:45:10;;;;;;;28.73;18.83;;;0.70;99.90;;;;;;7380419;19;20017;-69
2023/12/17 05:47:45;;;;;;;26.58;18.35;;;0.80;99.90;;;;;;7377137;19;20006;-68
2023/12/17 05:50:16;;;;;;;24.08;17.27;;;0.80;99.90;;;;;;7380420;19;20007;-69
2023/12/17 05:52:46;;;;;;;25.35;17.15;;;0.80;99.90;;;;;;7377438;19;20463;-70
2023/12/17 05:55:20;;;;;;;24.98;18.08;;;0.80;99.90;;;;;;7382746;19;20471;-69
2023/12/17 05:57:50;;;;;;;27.33;17.63;;;0.70;99.90;;;;;;7378049;19;20014;-69
2023/12/17 06:00:21;;;;;;;25.75;17.92;;;0.70;99.90;;;;;;7380695;19;20864;-70
2023/12/17 06:02:51;;;;;;;23.33;16.55;;;0.70;99.90;;;;;;7380214;19;20081;-68
2023/12/17 06:05:21;;;;;;;22.63;16.02;;;0.70;99.90;;;;;;7379754;19;20006;-69
2023/12/17 06:07:51;;;;;;;22.60;16.80;;;0.70;99.90;;;;;;7379544;19;20016;-69
2023/12/17 06:10:24;;;;;;;23.27;17.38;;;0.60;99.90;;;;;;7379900;19;20006;-68
2023/12/17 06:12:54;;;;;;;25.33;17.15;;;0.60;99.90;;;;;;7379866;19;20082;-69
2023/12/17 06:15:24;;;;;;;23.35;17.08;;;0.60;99.90;;;;;;7379592;19;20025;-67
2023/12/17 06:17:54;;;;;;;27.92;18.48;;;0.60;99.90;;;;;;7378751;19;20120;-69
2023/12/17 06:20:25;;;;;;;25.40;17.98;;;0.60;99.90;;;;;;7379091;19;20358;-69
2023/12/17 06:22:58;;;;;;;23.60;18.45;;;0.60;99.90;;;;;;7379868;19;20006;-69
2023/12/17 06:25:30;;;;;;;28.20;18.58;;;0.60;99.90;;;;;;7379301;19;20619;-69
2023/12/17 06:28:01;;;;;;;26.05;18.73;;;0.60;99.90;;;;;;7378953;19;20013;-70
2023/12/17 06:30:32;;;;;;;26.55;19.30;;;0.70;99.90;;;;;;7379007;19;20015;-69
2023/12/17 06:33:03;;;;;;;25.40;18.27;;;0.70;99.90;;;;;;7379077;19;20011;-68
2023/12/17 06:35:33;;;;;;;24.70;16.58;;;0.60;99.90;;;;;;7379943;19;20106;-69
2023/12/17 06:38:03;;;;;;;28.05;17.45;;;0.60;99.90;;;;;;7377519;19;20420;-68
2023/12/17 06:40:36;;;;;;;21.98;16.38;;;0.60;99.90;;;;;;7378469;19;20463;-69
2023/12/17 06:43:06;;;;;;;27.67;17.45;;;0.60;99.90;;;;;;7379087;19;20524;-69
2023/12/17 06:45:36;;;;;;;22.77;16.27;;;0.60;99.90;;;;;;7378382;19;20011;-69
2023/12/17 06:48:06;;;;;;;24.60;17.30;;;0.60;99.90;;;;;;7377760;19;20007;-68
2023/12/17 06:50:40;;;;;;;23.67;16.73;;;0.60;99.90;;;;;;7378392;19;20034;-69
2023/12/17 06:53:15;;;;;;;23.40;17.40;;;0.60;99.90;;;;;;7377971;19;20010;-67
2023/12/17 06:55:48;;;;;;;24.85;18.27;;;0.70;99.90;;;;;;7379930;19;20074;-69
2023/12/17 06:58:18;;;;;;;23.35;17.05;;;0.70;99.90;;;;;;7379860;19;20078;-69
2023/12/17 07:00:48;;;;;;;24.55;17.63;;;0.70;99.90;;;;;;7377894;19;20355;-68
2023/12/17 07:03:20;;;;;;;25.10;17.20;;;0.70;99.90;;;;;;7379821;19;20495;-69
2023/12/17 07:05:50;;;;;;;24.20;16.85;;;0.70;99.90;;;;;;7380930;19;20073;-69
2023/12/17 07:08:20;;;;;;;23.92;17.25;;;0.60;99.90;;;;;;7380808;19;20007;-69
2023/12/17 07:10:53;;;;;;;23.92;16.35;;;0.70;99.90;;;;;;7380226;19;20381;-69
2023/12/17 07:13:23;;;;;;;20.45;15.98;;;0.70;99.90;;;;;;7374005;19;20795;-69
2023/12/17 07:15:53;;;;;;;24.70;16.65;;;0.70;99.90;;;;;;7378385;19;20018;-69
2023/12/17 07:18:23;;;;;;;22.35;16.05;;;0.80;99.90;;;;;;7378145;19;20010;-69
2023/12/17 07:20:54;;;;;;;23.55;17.00;;;0.70;99.90;;;;;;7379628;19;20006;-69
2023/12/17 07:23:27;;;;;;;24.20;16.95;;;0.80;99.90;;;;;;7379889;19;20018;-69
2023/12/17 07:25:59;;;;;;;22.65;16.45;;;0.80;99.90;;;;;;7373568;19;20018;-69
2023/12/17 07:28:29;;;;;;;23.67;15.98;;;0.80;99.90;;;;;;7377884;19;20007;-69
2023/12/17 07:30:59;;;;;;;21.23;15.70;;;0.80;99.90;;;;;;7378407;19;20013;-69
2023/12/17 07:33:29;;;;;;;22.80;17.10;;;0.80;99.90;;;;;;7379176;19;20018;-69
2023/12/17 07:36:00;;;;;;;25.73;18.63;;;0.80;99.90;;;;;;7378913;19;20003;-68
2023/12/17 07:38:30;;;;;;;26.52;17.45;;;0.90;99.90;;;;;;7376202;19;20007;-69
2023/12/17 07:41:02;;;;;;;21.30;16.42;;;0.90;99.90;;;;;;7378533;19;20473;-68
2023/12/17 07:43:34;;;;;;;25.23;16.92;;;0.90;99.90;;;;;;7376902;19;20014;-69
2023/12/17 07:46:04;;;;;;;22.17;15.73;;;0.90;99.90;;;;;;7377806;19;20133;-69
2023/12/17 07:48:34;;;;;;;23.02;16.88;;;1.00;99.90;;;;;;7376583;19;20427;-68
2023/12/17 07:51:05;;;;;;;21.10;15.40;;;1.00;99.90;;;;;;7376753;19;20070;-70
2023/12/17 07:53:35;;;;;;;22.40;16.25;;;1.00;99.90;;;;;;7378180;19;20071;-69
2023/12/17 07:56:10;;;;;;;23.73;17.02;;;1.00;99.90;;;;;;7377293;19;20017;-68
2023/12/17 07:58:40;;;;;;;25.08;16.52;;;1.10;99.90;;;;;;7377804;19;20025;-68
2023/12/17 08:01:11;;;;;;;22.52;15.95;;;1.10;99.90;;;;;;7377694;19;20039;-70
2023/12/17 08:03:42;;;;;;;20.10;15.05;;;1.10;99.90;;;;;;7377580;19;21970;-68
2023/12/17 08:06:12;;;;;;;19.80;15.00;;;1.10;99.90;;;;;;7377359;19;20027;-68
2023/12/17 08:08:42;;;;;;;22.08;16.48;;;1.20;99.90;;;;;;7376934;19;20043;-69
2023/12/17 08:11:15;;;;;;;20.10;14.55;;;1.30;99.90;;;;;;7377077;19;20441;-69
2023/12/17 08:13:47;;;;;;;23.80;16.83;;;1.30;99.90;;;;;;7376622;19;20070;-68
2023/12/17 08:16:17;;;;;;;19.88;14.93;;;1.30;99.90;;;;;;7378395;19;20010;-69
2023/12/17 08:18:47;;;;;;;21.65;15.18;;;1.40;99.90;;;;;;7378015;19;19998;-68
2023/12/17 08:21:17;;;;;;;19.85;14.52;;;1.40;99.90;;;;;;7377231;19;20130;-68
2023/12/17 08:23:47;;;;;;;18.48;14.13;;;1.40;99.90;;;;;;7372723;19;20369;-69
2023/12/17 08:26:20;;;;;;;21.52;15.02;;;1.50;99.90;;;;;;7372158;19;20014;-70
2023/12/17 08:28:50;;;;;;;20.63;14.93;;;1.50;99.90;;;;;;7371191;19;20014;-68
2023/12/17 08:31:20;;;;;;;21.42;15.65;;;1.50;99.90;;;;;;7376733;19;20026;-68
2023/12/17 08:33:52;;;;;;;20.70;15.57;;;1.60;98.20;;;;;;7373707;19;20014;-69
2023/12/17 08:36:27;;;;;;;19.75;14.85;;;1.50;92.90;;;;;;7374954;19;20750;-67
2023/12/17 08:38:57;;;;;;;22.00;15.47;;;1.50;89.90;;;;;;7373893;19;20010;-70
2023/12/17 08:41:31;;;;;;;19.80;16.23;;;1.60;89.00;;;;;;7375695;19;20140;-69
2023/12/17 08:44:01;;;;;;;19.67;14.43;;;1.60;75.20;;;;;;7383370;19;20077;-69
2023/12/17 08:46:31;;;;;;;19.55;14.25;;;1.60;68.90;;;;;;7382506;19;20074;-70
2023/12/17 08:49:01;;;;;;;21.95;15.02;;;1.80;72.10;;;;;;7383243;19;20472;-69
2023/12/17 08:51:31;;;;;;;18.25;14.13;;;1.90;69.40;;;;;;7381744;19;20445;-69
2023/12/17 08:54:01;;;;;;;22.55;14.93;;;1.90;53.00;;;;;;7381833;19;20010;-68
2023/12/17 08:56:34;;;;;;;18.65;14.27;;;1.90;48.90;;;;;;7382229;19;20028;-69
2023/12/17 08:59:04;;;;;;;18.02;14.23;;;2.00;44.80;;;;;;7381123;19;20021;-69
2023/12/17 09:01:34;;;;;;;21.35;13.98;;;2.10;36.60;;;;;;7383476;19;20021;-69
2023/12/17 09:04:04;;;;;;;19.25;14.27;;;2.10;32.40;;;;;;7372940;19;20007;-69
2023/12/17 09:06:42;;;;;;;18.85;13.90;;;2.20;33.40;;;;;;7379273;19;20043;-69
2023/12/17 09:09:12;;;;;;;15.60;12.93;;;2.20;26.90;;;;;;7382730;19;20090;-69
2023/12/17 09:11:45;;;;;;;18.60;13.15;;;2.30;21.80;;;;;;7381077;19;20468;-69
2023/12/17 09:14:15;;;;;;;16.10;12.80;;;2.30;11.10;;;;;;7380179;19;20105;-68
2023/12/17 09:16:46;;;;;;;18.60;13.13;;;2.40;10.80;;;;;;7382580;19;20071;-68
2023/12/17 09:19:16;;;;;;;17.17;12.70;;;2.50;7.70;;;;;;7382651;19;20007;-68
2023/12/17 09:21:46;;;;;;;16.10;12.65;;;2.60;4.40;;;;;;7384323;19;20432;-69
2023/12/17 09:24:16;;;;;;;18.33;13.55;;;2.60;1.00;;;;;;7382589;19;20325;-69
2023/12/17 09:26:49;;;;;;;17.40;12.85;;;2.70;1.00;;;;;;7382368;19;20025;-69
2023/12/17 09:29:20;;;;;;;18.02;12.38;;;2.80;1.00;;;;;;7381817;19;20010;-69
2023/12/17 09:31:50;;;;;;;16.85;12.45;;;2.90;1.00;;;;;;7383530;19;20015;-69
2023/12/17 09:34:20;;;;;;;17.83;13.20;;;3.00;1.00;;;;;;7380559;19;20505;-69
2023/12/17 09:36:51;;;;;;;18.50;13.25;;;3.00;1.00;;;;;;7378832;19;20578;-69
2023/12/17 09:39:21;;;;;;;15.43;12.60;;;3.10;1.00;;;;;;7379242;19;20483;-69
2023/12/17 09:41:53;;;;;;;17.00;13.63;;;3.10;1.00;;;;;;7379721;19;20045;-69
2023/12/17 09:44:24;;;;;;;15.10;11.88;;;3.30;1.00;;;;;;7381143;19;20010;-69
2023/12/17 09:46:54;;;;;;;15.65;11.95;;;3.30;1.00;;;;;;7380794;19;20017;-68
2023/12/17 09:49:24;;;;;;;13.38;11.40;;;3.40;1.00;;;;;;7380883;19;20024;-69
2023/12/17 09:52:08;;;;;;;13.98;11.80;;;3.40;1.00;;;;;;7381903;19;20010;-70
2023/12/17 09:54:41;;;;;;;14.30;11.65;;;3.50;1.00;;;;;;7375902;19;20038;-70
2023/12/17 09:57:14;;;;;;;15.30;12.05;;;3.60;1.00;;;;;;7380986;19;20011;-69
2023/12/17 09:59:45;;;;;;;14.30;11.48;;;3.70;1.00;;;;;;7379216;19;20147;-72
2023/12/17 10:02:17;;;;;;;13.48;11.15;;;3.80;1.00;;;;;;7380500;19;20013;-69
2023/12/17 10:04:47;;;;;;;13.70;10.80;;;3.90;1.00;;;;;;7374800;19;20650;-69
2023/12/17 10:07:18;;;;;;;14.18;11.38;;;4.00;1.00;;;;;;7379473;19;20007;-69
2023/12/17 10:09:48;;;;;;;12.77;10.57;;;3.90;1.00;;;;;;7381008;19;20015;-69
2023/12/17 10:12:20;;;;;;;13.73;11.52;;;4.00;1.00;;;;;;7378593;19;20010;-69
2023/12/17 10:14:51;;;;;;;13.55;10.45;;;4.10;1.00;;;;;;7377903;19;20015;-69
2023/12/17 10:17:21;;;;;;;14.02;11.05;;;4.20;1.00;;;;;;7376690;19;20035;-69
2023/12/17 10:19:53;;;;;;;14.50;10.70;;;4.20;1.00;;;;;;7378607;19;20017;-70
2023/12/17 10:22:23;;;;;;;15.85;12.15;;;4.30;1.00;;;;;;7378980;19;20018;-69
2023/12/17 10:24:53;;;;;;;14.00;11.73;;;4.40;1.00;;;;;;7377144;19;20010;-69
2023/12/17 10:27:27;;;;;;;15.50;12.23;;;4.50;1.00;;;;;;7379016;19;20010;-69
2023/12/17 10:29:57;;;;;;;17.93;11.73;;;4.50;1.00;;;;;;7380969;19;20845;-69
2023/12/17 10:32:27;;;;;;;14.15;11.73;;;4.60;1.00;;;;;;7378550;19;20010;-68
2023/12/17 10:34:57;;;;;;;13.13;11.60;;;4.60;1.00;;;;;;7379586;19;20006;-70
2023/12/17 10:37:29;;;;;;;13.60;11.40;;;4.70;1.00;;;;;;7379037;19;20014;-69
2023/12/17 10:40:00;;;;;;;13.82;11.65;;;4.60;1.00;;;;;;7378459;19;20098;-69
2023/12/17 10:42:35;;;;;;;13.40;11.68;;;4.70;1.00;;;;;;7379540;19;20094;-70
2023/12/17 10:45:08;;;;;;;15.80;11.80;;;4.80;1.00;;;;;;7378621;19;20010;-70
2023/12/17 10:47:38;;;;;;;14.05;11.10;;;4.70;1.00;;;;;;7378444;19;20011;-70
2023/12/17 10:50:11;;;;;;;13.10;10.32;;;4.80;1.00;;;;;;7375905;19;20681;-69
2023/12/17 10:52:41;;;;;;;12.20;10.63;;;4.90;1.00;;;;;;7371540;19;20163;-69
2023/12/17 10:55:11;;;;;;;13.18;11.07;;;4.90;1.00;;;;;;7379976;19;20344;-70
2023/12/17 10:57:48;;;;;;;13.32;11.60;;;5.00;1.00;;;;;;7375836;19;20037;-70
2023/12/17 11:00:22;;;;;;;12.68;11.20;;;5.10;1.00;;;;;;7377143;19;20016;-69
2023/12/17 11:02:57;;;;;;;12.95;11.38;;;5.00;1.00;;;;;;7365438;19;20081;-69
2023/12/17 11:05:27;;;;;;;15.70;11.45;;;5.10;1.00;;;;;;7373465;19;20015;-69
2023/12/17 11:07:57;;;;;;;12.32;10.75;;;5.20;1.00;;;;;;7377734;19;20442;-71
2023/12/17 11:10:28;;;;;;;12.55;10.43;;;5.30;1.00;;;;;;7380321;19;20014;-70
2023/12/17 11:13:02;;;;;;;11.32;10.05;;;5.30;1.00;;;;;;7375938;19;20011;-69
2023/12/17 11:15:34;;;;;;;12.77;10.02;;;5.30;1.00;;;;;;7375395;19;20101;-69
2023/12/17 11:18:04;;;;;;;14.45;11.00;;;5.40;1.00;;;;;;7376620;19;20011;-70
2023/12/17 11:20:35;;;;;;;13.73;10.48;;;5.40;1.00;;;;;;7375798;19;20030;-69
2023/12/17 11:23:07;;;;;;;15.07;10.70;;;5.50;1.00;;;;;;7375271;19;20006;-70
2023/12/17 11:25:37;;;;;;;13.23;10.25;;;5.50;1.00;;;;;;7376488;19;20014;-69
2023/12/17 11:28:15;;;;;;;18.40;10.50;;;5.50;1.00;;;;;;7379080;19;20378;-70
2023/12/17 11:30:45;;;;;;;11.57;9.10;;;5.60;1.00;;;;;;7379055;19;20015;-68
2023/12/17 11:33:16;;;;;;;10.15;8.95;;;5.60;1.00;;;;;;7378907;19;20461;-69
2023/12/17 11:35:47;;;;;;;13.50;9.65;;;5.70;1.00;;;;;;7377914;19;20691;-70
2023/12/17 11:38:20;;;;;;;10.75;9.43;;;5.70;1.00;;;;;;7376854;19;20017;-69
2023/12/17 11:40:50;;;;;;;11.13;9.30;;;5.80;1.00;;;;;;7373346;19;20493;-70
2023/12/17 11:43:25;;;;;;;11.65;8.80;;;5.80;1.00;;;;;;7379581;19;20014;-69
2023/12/17 11:45:58;;;;;;;11.63;8.77;;;5.70;1.00;;;;;;7372451;19;20021;-70
2023/12/17 11:48:28;;;;;;;11.20;9.52;;;5.70;1.00;;;;;;7375197;19;20409;-70
2023/12/17 11:51:01;;;;;;;11.63;9.65;;;5.80;1.00;;;;;;7377771;19;20427;-70
2023/12/17 11:53:31;;;;;;;10.43;8.70;;;5.90;1.00;;;;;;7377110;19;20017;-72
2023/12/17 11:56:03;;;;;;;11.25;9.05;;;5.90;1.00;;;;;;7377878;19;20018;-68
2023/12/17 11:58:47;;;;;;;13.00;10.23;;;6.00;1.00;;;;;;7376828;19;20006;-71
2023/12/17 12:01:18;;;;;;;14.10;9.27;;;6.20;1.00;;;;;;7377795;19;20014;-69
2023/12/17 12:03:48;;;;;;;10.45;9.02;;;6.20;1.00;;;;;;7377658;19;20006;-69
2023/12/17 12:06:18;;;;;;;10.75;8.93;;;6.20;1.00;;;;;;7377748;19;20007;-69
2023/12/17 12:08:48;;;;;;;11.40;8.88;;;6.20;1.00;;;;;;7377238;19;20015;-70
2023/12/17 12:11:21;;;;;;;10.98;9.10;;;6.20;1.00;;;;;;7374501;19;20036;-68
2023/12/17 12:13:54;;;;;;;12.38;9.13;;;6.20;1.00;;;;;;7376903;19;20022;-69
2023/12/17 12:16:24;;;;;;;11.68;10.15;;;6.20;1.00;;;;;;7370058;19;20017;-69
2023/12/17 12:19:05;;;;;;;12.02;9.77;;;6.20;1.00;;;;;;7375708;19;20078;-69
2023/12/17 12:21:39;;;;;;;11.23;9.30;;;6.30;1.00;;;;;;6866566;19;2004477;-69
2023/12/17 12:24:12;;;;;;;10.93;9.00;;;6.30;1.00;;;;;;7376164;19;20043;-69
2023/12/17 12:26:42;;;;;;;12.38;10.25;;;6.30;1.00;;;;;;7376700;19;20015;-68
2023/12/17 12:29:15;;;;;;;10.82;9.38;;;6.40;1.00;;;;;;7375921;19;20539;-69
2023/12/17 12:31:53;;;;;;;11.10;8.95;;;6.30;1.00;;;;;;7375551;19;20021;-71
2023/12/17 12:34:34;;;;;;;10.32;8.90;;;6.40;1.00;;;;;;7372341;19;20041;-68
2023/12/17 12:37:05;;;;;;;10.45;9.25;;;6.40;1.00;;;;;;7373746;19;20009;-69
2023/12/17 12:39:48;;;;;;;11.10;9.05;;;6.50;1.00;;;;;;7375834;19;20014;-69
2023/12/17 12:42:33;;;;;;;12.65;10.02;;;6.50;1.00;;;;;;7372885;19;20021;-68
2023/12/17 12:45:10;;;;;;;12.27;9.57;;;6.50;1.00;;;;;;7374701;19;20035;-68
2023/12/17 12:47:41;;;;;;;11.95;8.93;;;6.50;1.00;;;;;;7374824;19;20007;-68
2023/12/17 12:50:12;;;;;;;10.93;8.85;;;6.60;1.00;;;;;;7374237;19;20009;-68
2023/12/17 12:52:43;;;;;;;12.45;9.32;;;6.60;1.00;;;;;;7374131;19;20084;-69
2023/12/17 12:55:13;;;;;;;13.90;10.55;;;6.60;1.00;;;;;;7371219;19;20357;-68
2023/12/17 12:57:43;;;;;;;12.90;10.10;;;6.60;1.00;;;;;;7373124;19;20043;-68
2023/12/17 13:00:18;;;;;;;10.35;8.77;;;6.60;1.00;;;;;;7375140;19;20010;-68